広州 の空港の天気 - METARとTAF

広州白雲国際空港 ( ZGGG / CAN ) - 中国 広東省広州市
飛行場実況気象(Metar)
観測時間10/21 01:00 CST (10/20 17:00 UTC)
風向・風速東北東 2m/s
視程10km以上
天気現象
なし
気温22℃
湿度65%
気圧1015hPa
METARZGGG 201700Z 06002MPS 040V100 CAVOK 22/15 Q1015 NOSIG
過去の天気等 Google飛行場航空写真 Wunderground天気予報

過去48時間のMETAR

飛行場予報(TAF)
発表時間: 10/20 23:01 CST (10/20 15:01 UTC)
予報対象時間: 21日2時 CST ~ 22日2時 CST
風向・風速北東 4m/s
視程10km以上
なし
TAF ZGGG 201501Z 2018/2118 05004MPS CAVOK TX31/2107Z TN21/2022Z